createdAt,value
2023-10-23T00:00:30.849Z,10.80
2023-10-23T00:02:58.882Z,10.80
2023-10-23T00:05:33.116Z,10.80
2023-10-23T00:08:01.328Z,10.80
2023-10-23T00:10:29.121Z,10.80
2023-10-23T00:13:05.185Z,10.80
2023-10-23T00:15:39.770Z,10.80
2023-10-23T00:18:20.992Z,10.80
2023-10-23T00:20:49.698Z,10.80
2023-10-23T00:23:17.572Z,10.70
2023-10-23T00:25:51.976Z,10.70
2023-10-23T00:28:21.162Z,10.70
2023-10-23T00:30:49.084Z,10.70
2023-10-23T00:33:24.085Z,10.70
2023-10-23T00:35:54.460Z,10.60
2023-10-23T00:38:22.506Z,10.60
2023-10-23T00:40:56.981Z,10.60
2023-10-23T00:43:27.205Z,10.60
2023-10-23T00:46:04.017Z,10.50
2023-10-23T00:48:32.491Z,10.50
2023-10-23T00:51:03.066Z,10.50
2023-10-23T00:53:40.953Z,10.50
2023-10-23T00:56:10.514Z,10.50
2023-10-23T00:58:40.722Z,10.50
2023-10-23T01:01:17.124Z,10.50
2023-10-23T01:03:45.843Z,10.40
2023-10-23T01:06:14.910Z,10.40
2023-10-23T01:08:49.971Z,10.40
2023-10-23T01:11:17.850Z,10.30
2023-10-23T01:13:47.011Z,10.30
2023-10-23T01:16:28.005Z,10.30
2023-10-23T01:19:05.906Z,10.30
2023-10-23T01:21:41.010Z,10.20
2023-10-23T01:24:11.132Z,10.20
2023-10-23T01:26:40.249Z,10.20
2023-10-23T01:29:14.982Z,10.20
2023-10-23T01:31:42.912Z,10.20
2023-10-23T01:34:10.750Z,10.20
2023-10-23T01:36:46.089Z,10.10
2023-10-23T01:39:13.923Z,10.10
2023-10-23T01:41:43.761Z,10.00
2023-10-23T01:44:20.421Z,10.00
2023-10-23T01:46:48.273Z,10.00
2023-10-23T01:49:16.165Z,10.00
2023-10-23T01:51:53.068Z,9.90
2023-10-23T01:54:20.982Z,9.90
2023-10-23T01:56:50.144Z,9.80
2023-10-23T01:59:24.022Z,9.80
2023-10-23T02:01:51.897Z,9.80
2023-10-23T02:04:19.775Z,9.70
2023-10-23T02:06:55.065Z,9.70
2023-10-23T02:09:22.964Z,9.60
2023-10-23T02:11:52.276Z,9.50
2023-10-23T02:14:26.997Z,9.50
2023-10-23T02:17:01.137Z,9.50
2023-10-23T02:19:42.034Z,9.40
2023-10-23T02:22:10.060Z,9.40
2023-10-23T02:24:38.157Z,9.30
2023-10-23T02:27:16.007Z,9.20
2023-10-23T02:29:43.899Z,9.20
2023-10-23T02:32:11.767Z,9.20
2023-10-23T02:37:19.233Z,9.10
2023-10-23T02:39:53.184Z,9.00
2023-10-23T02:42:23.089Z,9.10
2023-10-23T02:44:50.908Z,9.00
2023-10-23T02:47:25.289Z,9.10
2023-10-23T02:49:55.168Z,9.10
2023-10-23T02:52:23.333Z,9.10
2023-10-23T02:54:58.177Z,9.10
2023-10-23T02:57:27.394Z,9.10
2023-10-23T02:59:57.018Z,9.00
2023-10-23T03:02:31.101Z,8.90
2023-10-23T03:04:58.977Z,8.70
2023-10-23T03:07:26.792Z,8.70
2023-10-23T03:10:01.155Z,8.70
2023-10-23T03:12:30.565Z,8.70
2023-10-23T03:14:58.445Z,8.60
2023-10-23T03:17:33.045Z,8.60
2023-10-23T03:20:08.060Z,8.50
2023-10-23T03:22:43.088Z,8.50
2023-10-23T03:25:12.278Z,8.40
2023-10-23T03:27:42.716Z,8.40
2023-10-23T03:30:18.270Z,8.40
2023-10-23T03:32:46.105Z,8.40
2023-10-23T03:35:13.945Z,8.40
2023-10-23T03:37:48.025Z,8.50
2023-10-23T03:40:16.034Z,8.50
2023-10-23T03:42:45.439Z,8.40
2023-10-23T03:45:20.139Z,8.40
2023-10-23T03:47:48.183Z,8.40
2023-10-23T03:50:16.191Z,8.40
2023-10-23T03:52:50.045Z,8.40
2023-10-23T03:55:18.036Z,8.50
2023-10-23T03:57:49.415Z,8.40
2023-10-23T04:00:24.203Z,8.20
2023-10-23T04:02:53.444Z,8.20
2023-10-23T04:05:21.491Z,8.00
2023-10-23T04:07:56.050Z,8.00
2023-10-23T04:10:23.874Z,8.00
2023-10-23T04:12:53.208Z,8.00
2023-10-23T04:15:28.087Z,8.00
2023-10-23T04:18:15.987Z,8.00
2023-10-23T04:20:50.095Z,8.00
2023-10-23T04:23:18.207Z,8.00
2023-10-23T04:26:02.174Z,7.90
2023-10-23T04:28:31.561Z,7.90
2023-10-23T04:30:59.492Z,7.90
2023-10-23T04:33:34.094Z,7.90
2023-10-23T04:36:02.292Z,7.80
2023-10-23T04:38:30.868Z,7.80
2023-10-23T04:41:05.252Z,7.90
2023-10-23T04:43:36.004Z,7.90
2023-10-23T04:46:04.081Z,7.90
2023-10-23T04:48:38.113Z,7.80
2023-10-23T04:51:06.036Z,7.80
2023-10-23T04:53:33.982Z,7.90
2023-10-23T04:56:08.111Z,7.90
2023-10-23T04:58:37.504Z,7.80
2023-10-23T05:01:05.395Z,7.80
2023-10-23T05:03:40.274Z,8.00
2023-10-23T05:06:08.908Z,8.10
2023-10-23T05:08:36.696Z,8.10
2023-10-23T05:11:14.116Z,8.10
2023-10-23T05:13:43.297Z,8.00
2023-10-23T05:16:13.963Z,8.00
2023-10-23T05:18:49.123Z,8.10
2023-10-23T05:21:20.020Z,8.10
2023-10-23T05:23:47.990Z,8.20
2023-10-23T05:26:23.102Z,8.20
2023-10-23T05:28:54.541Z,8.20
2023-10-23T05:31:22.969Z,8.20
2023-10-23T05:33:58.147Z,8.20
2023-10-23T05:36:26.141Z,8.10
2023-10-23T05:38:54.066Z,8.10
2023-10-23T05:41:29.087Z,8.10
2023-10-23T05:43:58.647Z,8.30
2023-10-23T05:46:26.856Z,8.20
2023-10-23T05:49:01.218Z,8.20
2023-10-23T05:51:29.175Z,8.20
2023-10-23T05:53:58.751Z,8.20
2023-10-23T05:56:33.327Z,8.30
2023-10-23T05:59:02.637Z,8.30
2023-10-23T06:01:30.629Z,8.20
2023-10-23T06:04:05.349Z,8.30
2023-10-23T06:06:33.378Z,8.40
2023-10-23T06:09:01.255Z,8.50
2023-10-23T06:11:36.099Z,8.60
2023-10-23T06:14:05.338Z,8.80
2023-10-23T06:16:33.355Z,8.90
2023-10-23T06:19:08.211Z,9.00
2023-10-23T06:21:36.073Z,9.10
2023-10-23T06:24:04.898Z,9.10
2023-10-23T06:26:39.376Z,9.20
2023-10-23T06:29:09.630Z,9.30
2023-10-23T06:31:37.472Z,9.30
2023-10-23T06:34:12.076Z,9.30
2023-10-23T06:36:42.920Z,9.40
2023-10-23T06:39:10.835Z,9.40
2023-10-23T06:41:45.201Z,9.40
2023-10-23T06:44:14.909Z,9.40
2023-10-23T06:46:42.737Z,9.50
2023-10-23T06:49:17.102Z,9.60
2023-10-23T06:51:44.993Z,9.70
2023-10-23T06:54:13.521Z,9.90
2023-10-23T06:56:48.140Z,9.90
2023-10-23T06:59:19.448Z,9.90
2023-10-23T07:01:47.714Z,10.00
2023-10-23T07:04:22.126Z,10.00
2023-10-23T07:06:49.939Z,10.00
2023-10-23T07:09:18.506Z,10.10
2023-10-23T07:11:56.159Z,10.20
2023-10-23T07:14:25.381Z,10.20
2023-10-23T07:16:53.296Z,10.20
2023-10-23T07:19:28.089Z,10.20
2023-10-23T07:21:55.963Z,10.30
2023-10-23T07:24:23.868Z,10.30
2023-10-23T07:26:58.151Z,10.40
2023-10-23T07:29:27.346Z,10.40
2023-10-23T07:31:55.178Z,10.40
2023-10-23T07:34:30.187Z,10.40
2023-10-23T07:36:58.206Z,10.50
2023-10-23T07:39:26.411Z,10.50
2023-10-23T07:42:01.243Z,10.60
2023-10-23T07:44:30.551Z,10.60
2023-10-23T07:46:58.643Z,10.60
2023-10-23T07:49:33.123Z,10.60
2023-10-23T07:52:01.039Z,10.60
2023-10-23T07:54:28.915Z,10.70
2023-10-23T07:57:04.170Z,10.70
2023-10-23T07:59:33.794Z,10.70
2023-10-23T08:02:01.713Z,10.90
2023-10-23T08:04:36.240Z,11.10
2023-10-23T08:07:04.384Z,11.10
2023-10-23T08:09:32.216Z,11.10
2023-10-23T08:12:06.124Z,11.10
2023-10-23T08:14:36.261Z,11.20
2023-10-23T08:17:04.838Z,11.10
2023-10-23T08:19:39.319Z,11.10
2023-10-23T08:22:13.771Z,11.20
2023-10-23T08:24:48.154Z,11.20
2023-10-23T08:27:16.017Z,11.30
2023-10-23T08:29:45.190Z,11.40
2023-10-23T08:32:20.217Z,11.40
2023-10-23T08:34:48.419Z,11.50
2023-10-23T08:37:17.879Z,11.60
2023-10-23T08:39:52.251Z,11.70
2023-10-23T08:42:20.213Z,11.80
2023-10-23T08:44:59.133Z,11.80
2023-10-23T08:47:27.067Z,11.80
2023-10-23T08:49:57.998Z,11.80
2023-10-23T08:52:34.091Z,12.00
2023-10-23T08:55:04.747Z,12.10
2023-10-23T08:57:32.747Z,12.20
2023-10-23T09:00:08.165Z,12.20
2023-10-23T09:02:36.112Z,12.30
2023-10-23T09:05:27.309Z,12.10
2023-10-23T09:07:55.680Z,11.90
2023-10-23T09:10:23.757Z,11.80
2023-10-23T09:13:03.140Z,11.90
2023-10-23T09:15:32.388Z,12.00
2023-10-23T09:18:16.080Z,12.10
2023-10-23T09:20:51.581Z,12.20
2023-10-23T09:23:26.122Z,12.20
2023-10-23T09:25:59.073Z,12.20
2023-10-23T09:28:35.196Z,12.30
2023-10-23T09:31:05.938Z,12.30
2023-10-23T09:33:35.284Z,12.20
2023-10-23T09:36:10.279Z,12.30
2023-10-23T09:38:40.759Z,12.50
2023-10-23T09:41:17.152Z,12.50
2023-10-23T09:43:46.991Z,12.60
2023-10-23T09:46:16.794Z,12.40
2023-10-23T09:48:56.572Z,12.40
2023-10-23T09:51:31.970Z,12.40
2023-10-23T09:54:08.259Z,12.40
2023-10-23T09:56:36.953Z,12.40
2023-10-23T09:59:06.872Z,12.40
2023-10-23T10:01:44.209Z,12.60
2023-10-23T10:04:17.558Z,12.70
2023-10-23T10:06:56.480Z,12.80
2023-10-23T10:09:26.077Z,12.90
2023-10-23T10:12:03.150Z,13.00
2023-10-23T10:14:32.355Z,13.10
2023-10-23T10:17:02.365Z,12.90
2023-10-23T10:19:37.279Z,12.80
2023-10-23T10:22:10.760Z,12.60
2023-10-23T10:24:47.262Z,12.40
2023-10-23T10:27:15.784Z,12.40
2023-10-23T10:29:44.037Z,12.40
2023-10-23T10:32:20.155Z,12.50
2023-10-23T10:34:55.938Z,12.50
2023-10-23T10:37:34.192Z,12.50
2023-10-23T10:40:12.124Z,12.60
2023-10-23T10:42:51.552Z,12.70
2023-10-23T10:45:20.677Z,12.60
2023-10-23T10:48:00.285Z,12.70
2023-10-23T10:50:36.879Z,12.70
2023-10-23T10:53:14.190Z,12.70
2023-10-23T10:55:49.236Z,12.70
2023-10-23T10:58:25.368Z,12.70
2023-10-23T11:00:53.426Z,12.70
2023-10-23T11:03:23.172Z,12.70
2023-10-23T11:05:59.188Z,12.70
2023-10-23T11:08:28.974Z,12.80
2023-10-23T11:10:57.731Z,12.90
2023-10-23T11:13:32.148Z,13.20
2023-10-23T11:16:00.445Z,13.40
2023-10-23T11:18:44.191Z,13.40
2023-10-23T11:21:23.263Z,13.50
2023-10-23T11:23:58.295Z,13.50
2023-10-23T11:26:26.135Z,13.40
2023-10-23T11:28:53.973Z,13.60
2023-10-23T11:31:30.207Z,13.50
2023-10-23T11:34:00.292Z,13.40
2023-10-23T11:36:29.662Z,13.30
2023-10-23T11:39:04.177Z,13.30
2023-10-23T11:41:32.043Z,13.30
2023-10-23T11:44:11.163Z,13.30
2023-10-23T11:46:40.444Z,13.10
2023-10-23T11:49:09.722Z,12.90
2023-10-23T11:51:44.166Z,12.80
2023-10-23T11:54:12.923Z,12.60
2023-10-23T11:56:55.251Z,12.50
2023-10-23T11:59:25.793Z,12.50
2023-10-23T12:02:02.185Z,12.50
2023-10-23T12:04:36.573Z,12.40
2023-10-23T12:07:13.261Z,12.40
2023-10-23T12:09:41.332Z,12.40
2023-10-23T12:12:09.283Z,12.30
2023-10-23T12:14:43.446Z,12.10
2023-10-23T12:17:41.133Z,12.10
2023-10-23T12:20:24.234Z,12.10
2023-10-23T12:22:52.923Z,12.10
2023-10-23T12:25:21.615Z,12.00
2023-10-23T12:27:56.281Z,12.00
2023-10-23T12:30:27.671Z,12.00
2023-10-23T12:33:14.832Z,12.00
2023-10-23T12:35:52.224Z,12.00
2023-10-23T12:38:20.204Z,12.00
2023-10-23T12:40:49.891Z,12.00
2023-10-23T12:43:24.415Z,12.10
2023-10-23T12:45:52.531Z,12.20
2023-10-23T12:48:20.591Z,12.30
2023-10-23T12:50:56.244Z,12.20
2023-10-23T12:53:25.416Z,12.20
2023-10-23T12:55:53.361Z,12.20
2023-10-23T12:58:28.214Z,12.10
2023-10-23T13:00:56.350Z,12.10
2023-10-23T13:03:24.198Z,12.10
2023-10-23T13:06:00.192Z,12.00
2023-10-23T13:08:27.997Z,12.00
2023-10-23T13:10:56.083Z,12.10
2023-10-23T13:13:30.243Z,12.20
2023-10-23T13:15:58.191Z,12.30
2023-10-23T13:18:52.905Z,12.30
2023-10-23T13:21:34.674Z,12.20
2023-10-23T13:24:10.246Z,12.20
2023-10-23T13:26:39.248Z,12.20
2023-10-23T13:29:07.594Z,12.10
2023-10-23T13:31:42.390Z,12.10
2023-10-23T13:34:10.278Z,12.10
2023-10-23T13:36:39.507Z,12.00
2023-10-23T13:39:17.418Z,12.00
2023-10-23T13:41:45.383Z,12.00
2023-10-23T13:44:13.228Z,12.00
2023-10-23T13:46:50.363Z,12.00
2023-10-23T13:49:18.654Z,12.00
2023-10-23T13:51:47.926Z,12.00
2023-10-23T13:54:22.314Z,12.00
2023-10-23T13:56:50.084Z,12.00
2023-10-23T13:59:17.933Z,11.90
2023-10-23T14:01:53.211Z,11.90
2023-10-23T14:04:21.249Z,12.00
2023-10-23T14:06:50.615Z,12.00
2023-10-23T14:09:41.606Z,12.00
2023-10-23T14:12:13.478Z,12.00
2023-10-23T14:14:48.234Z,12.00
2023-10-23T14:17:16.930Z,12.00
2023-10-23T14:20:00.372Z,12.00
2023-10-23T14:22:29.591Z,12.00
2023-10-23T14:24:57.894Z,12.00
2023-10-23T14:27:32.216Z,12.00
2023-10-23T14:30:00.287Z,12.00
2023-10-23T14:32:28.159Z,11.90
2023-10-23T14:35:02.207Z,11.90
2023-10-23T14:37:31.463Z,11.90
2023-10-23T14:39:59.670Z,11.90
2023-10-23T14:42:34.235Z,11.90
2023-10-23T14:45:04.905Z,11.90
2023-10-23T14:47:32.873Z,11.90
2023-10-23T14:50:11.225Z,11.80
2023-10-23T14:52:40.855Z,11.80
2023-10-23T14:55:10.124Z,11.80
2023-10-23T14:57:45.472Z,11.70
2023-10-23T15:00:14.176Z,11.70
2023-10-23T15:02:42.080Z,11.70
2023-10-23T15:05:17.288Z,11.60
2023-10-23T15:07:46.816Z,11.60
2023-10-23T15:10:25.766Z,11.60
2023-10-23T15:12:53.637Z,11.60
2023-10-23T15:15:23.556Z,11.50
2023-10-23T15:17:58.248Z,11.50
2023-10-23T15:20:48.185Z,11.50
2023-10-23T15:23:24.268Z,11.40
2023-10-23T15:25:53.951Z,11.40
2023-10-23T15:28:21.770Z,11.40
2023-10-23T15:31:01.344Z,11.30
2023-10-23T15:33:30.132Z,11.30
2023-10-23T15:35:59.254Z,11.30
2023-10-23T15:38:37.246Z,11.30
2023-10-23T15:41:07.487Z,11.30
2023-10-23T15:43:35.922Z,11.20
2023-10-23T15:46:14.589Z,11.20
2023-10-23T15:48:42.746Z,11.20
2023-10-23T15:51:11.003Z,11.20
2023-10-23T15:53:47.264Z,11.20
2023-10-23T15:56:15.169Z,11.10
2023-10-23T15:58:43.057Z,11.10
2023-10-23T16:01:17.310Z,11.00
2023-10-23T16:03:46.211Z,11.00
2023-10-23T16:06:14.076Z,11.00
2023-10-23T16:08:50.262Z,10.90
2023-10-23T16:11:21.464Z,11.00
2023-10-23T16:13:49.625Z,10.90
2023-10-23T16:16:24.362Z,10.90
2023-10-23T16:19:12.389Z,10.90
2023-10-23T16:21:47.287Z,10.90
2023-10-23T16:24:16.403Z,10.90
2023-10-23T16:26:44.189Z,10.80
2023-10-23T16:29:18.271Z,10.80
2023-10-23T16:31:46.234Z,10.80
2023-10-23T16:34:14.283Z,10.80
2023-10-23T16:36:49.284Z,10.80
2023-10-23T16:39:18.412Z,10.80
2023-10-23T16:41:47.101Z,10.80
2023-10-23T16:44:21.419Z,10.70
2023-10-23T16:46:50.668Z,10.70
2023-10-23T16:49:18.627Z,10.70
2023-10-23T16:51:53.451Z,10.80
2023-10-23T16:54:22.590Z,10.80
2023-10-23T16:56:50.655Z,10.80
2023-10-23T16:59:27.146Z,10.80
2023-10-23T17:01:57.069Z,10.70
2023-10-23T17:04:32.330Z,10.70
2023-10-23T17:07:00.470Z,10.70
2023-10-23T17:09:32.166Z,10.70
2023-10-23T17:12:06.332Z,10.70
2023-10-23T17:14:34.271Z,10.70
2023-10-23T17:17:02.613Z,10.70
2023-10-23T17:19:37.292Z,10.70
2023-10-23T17:22:12.145Z,10.60
2023-10-23T17:24:48.665Z,10.60
2023-10-23T17:27:16.570Z,10.60
2023-10-23T17:29:44.805Z,10.60
2023-10-23T17:32:19.303Z,10.60
2023-10-23T17:34:47.854Z,10.60
2023-10-23T17:37:15.741Z,10.60
2023-10-23T17:39:51.303Z,10.50
2023-10-23T17:42:19.145Z,10.50
2023-10-23T17:44:46.988Z,10.50
2023-10-23T17:47:23.356Z,10.50
2023-10-23T17:49:54.297Z,10.60
2023-10-23T17:52:22.534Z,10.50
2023-10-23T17:54:58.296Z,10.60
2023-10-23T17:57:27.531Z,10.60
2023-10-23T17:59:55.431Z,10.50
2023-10-23T18:02:30.458Z,10.50
2023-10-23T18:04:58.313Z,10.50
2023-10-23T18:07:26.157Z,10.50
2023-10-23T18:10:02.351Z,10.50
2023-10-23T18:12:38.094Z,10.50
2023-10-23T18:15:14.325Z,10.50
2023-10-23T18:17:42.320Z,10.60
2023-10-23T18:20:24.660Z,10.60
2023-10-23T18:22:54.634Z,10.60
2023-10-23T18:25:23.814Z,10.60
2023-10-23T18:27:59.390Z,10.60
2023-10-23T18:30:27.549Z,10.60
2023-10-23T18:32:55.488Z,10.60
2023-10-23T18:35:30.306Z,10.60
2023-10-23T18:37:58.274Z,10.60
2023-10-23T18:40:27.816Z,10.60
2023-10-23T18:43:07.483Z,10.60
2023-10-23T18:45:35.387Z,10.60
2023-10-23T18:48:04.486Z,10.60
2023-10-23T18:50:39.545Z,10.60
2023-10-23T18:53:07.394Z,10.60
2023-10-23T18:55:36.727Z,10.50
2023-10-23T18:58:11.623Z,10.50
2023-10-23T19:00:39.529Z,10.60
2023-10-23T19:03:09.297Z,10.50
2023-10-23T19:05:46.419Z,10.50
2023-10-23T19:08:14.492Z,10.50
2023-10-23T19:10:43.755Z,10.50
2023-10-23T19:13:19.356Z,10.50
2023-10-23T19:15:48.203Z,10.50
2023-10-23T19:18:16.055Z,10.50
2023-10-23T19:20:50.404Z,10.50
2023-10-23T19:23:18.274Z,10.50
2023-10-23T19:26:00.300Z,10.50
2023-10-23T19:28:29.167Z,10.40
2023-10-23T19:30:58.193Z,10.40
2023-10-23T19:33:33.347Z,10.40
2023-10-23T19:36:01.581Z,10.40
2023-10-23T19:38:29.788Z,10.40
2023-10-23T19:41:10.461Z,10.40
2023-10-23T19:43:43.153Z,10.40
2023-10-23T19:46:20.599Z,10.40
2023-10-23T19:48:49.838Z,10.30
2023-10-23T19:51:19.365Z,10.30
2023-10-23T19:53:55.552Z,10.30
2023-10-23T19:56:30.695Z,10.30
2023-10-23T19:59:07.340Z,10.30
2023-10-23T20:01:35.333Z,10.30
2023-10-23T20:04:04.715Z,10.20
2023-10-23T20:06:39.391Z,10.30
2023-10-23T20:09:07.395Z,10.30
2023-10-23T20:11:36.511Z,10.30
2023-10-23T20:14:11.338Z,10.20
2023-10-23T20:16:39.228Z,10.20
2023-10-23T20:19:28.509Z,10.20
2023-10-23T20:21:58.943Z,10.20
2023-10-23T20:24:26.851Z,10.20
2023-10-23T20:27:04.458Z,10.10
2023-10-23T20:29:32.241Z,10.10
2023-10-23T20:32:01.310Z,10.10
2023-10-23T20:34:35.661Z,10.00
2023-10-23T20:37:03.903Z,10.00
2023-10-23T20:39:31.749Z,10.00
2023-10-23T20:42:10.370Z,10.00
2023-10-23T20:44:38.388Z,9.90
2023-10-23T20:47:10.153Z,9.90
2023-10-23T20:49:44.502Z,9.90
2023-10-23T20:52:13.014Z,9.80
2023-10-23T20:54:40.938Z,9.80
2023-10-23T20:57:16.476Z,9.70
2023-10-23T20:59:44.344Z,9.70
2023-10-23T21:02:12.346Z,9.60
2023-10-23T21:04:46.352Z,9.60
2023-10-23T21:07:14.381Z,9.60
2023-10-23T21:09:42.439Z,9.60
2023-10-23T21:12:18.802Z,9.60
2023-10-23T21:14:48.353Z,9.60
2023-10-23T21:17:16.299Z,9.50
2023-10-23T21:19:50.368Z,9.50
2023-10-23T21:22:18.272Z,9.40
2023-10-23T21:24:46.297Z,9.40
2023-10-23T21:27:23.336Z,9.40
2023-10-23T21:29:51.155Z,9.40
2023-10-23T21:32:18.974Z,9.40
2023-10-23T21:34:53.410Z,9.40
2023-10-23T21:37:28.320Z,9.30
2023-10-23T21:40:02.366Z,9.30
2023-10-23T21:42:31.499Z,9.30
2023-10-23T21:44:59.280Z,9.20
2023-10-23T21:47:33.465Z,9.20
2023-10-23T21:50:01.327Z,9.10
2023-10-23T21:52:29.730Z,9.10
2023-10-23T21:55:13.867Z,9.00
2023-10-23T21:57:48.897Z,8.90
2023-10-23T22:00:34.470Z,8.70
2023-10-23T22:03:03.784Z,8.60
2023-10-23T22:05:32.522Z,8.50
2023-10-23T22:08:07.369Z,8.40
2023-10-23T22:10:35.739Z,8.40
2023-10-23T22:13:06.681Z,8.30
2023-10-23T22:15:41.437Z,8.20
2023-10-23T22:18:09.283Z,8.10
2023-10-23T22:20:50.335Z,8.10
2023-10-23T22:23:24.948Z,8.00
2023-10-23T22:26:00.670Z,8.00
2023-10-23T22:28:30.869Z,8.00
2023-10-23T22:30:58.879Z,7.90
2023-10-23T22:33:33.406Z,7.90
2023-10-23T22:36:01.222Z,8.00
2023-10-23T22:38:42.482Z,8.00
2023-10-23T22:41:10.409Z,8.10
2023-10-23T22:43:39.538Z,8.10
2023-10-23T22:46:14.406Z,8.20
2023-10-23T22:48:43.523Z,8.20
2023-10-23T22:51:12.754Z,8.20
2023-10-23T22:53:47.361Z,8.20
2023-10-23T22:56:18.888Z,8.30
2023-10-23T22:58:55.358Z,8.30
2023-10-23T23:01:23.681Z,8.30
2023-10-23T23:03:52.064Z,8.40
2023-10-23T23:06:28.362Z,8.40
2023-10-23T23:08:58.250Z,8.50
2023-10-23T23:11:26.865Z,8.50
2023-10-23T23:14:05.765Z,8.60
2023-10-23T23:16:37.499Z,8.50
2023-10-23T23:19:12.412Z,8.60
2023-10-23T23:21:54.826Z,8.60
2023-10-23T23:24:32.290Z,8.60
2023-10-23T23:27:00.727Z,8.60
2023-10-23T23:29:36.408Z,8.60
2023-10-23T23:32:04.862Z,8.60
2023-10-23T23:34:32.863Z,8.60
2023-10-23T23:37:07.450Z,8.60
2023-10-23T23:39:35.355Z,8.70
2023-10-23T23:42:03.286Z,8.70
2023-10-23T23:44:39.609Z,8.80
2023-10-23T23:47:07.548Z,8.70
2023-10-23T23:49:35.367Z,8.80
2023-10-23T23:52:09.390Z,8.80
2023-10-23T23:54:37.166Z,8.80
2023-10-23T23:57:05.287Z,8.90
2023-10-23T23:59:41.369Z,8.90
